createdAt,value
2018-10-11T00:01:07.655Z,43.73
2018-10-11T00:03:36.782Z,42.70
2018-10-11T00:06:05.947Z,43.30
2018-10-11T00:08:34.969Z,43.83
2018-10-11T00:11:04.089Z,45.70
2018-10-11T00:13:33.592Z,43.70
2018-10-11T00:16:03.109Z,43.10
2018-10-11T00:18:32.420Z,43.47
2018-10-11T00:21:01.552Z,42.60
2018-10-11T00:23:30.492Z,47.97
2018-10-11T00:25:59.577Z,45.17
2018-10-11T00:28:28.920Z,45.20
2018-10-11T00:30:58.028Z,43.30
2018-10-11T00:33:27.950Z,45.30
2018-10-11T00:35:57.099Z,45.47
2018-10-11T00:38:26.133Z,43.13
2018-10-11T00:40:55.721Z,45.80
2018-10-11T00:43:25.116Z,45.37
2018-10-11T00:45:54.700Z,48.43
2018-10-11T00:48:24.530Z,46.57
2018-10-11T00:50:53.729Z,46.57
2018-10-11T00:53:23.846Z,51.33
2018-10-11T00:55:53.304Z,49.33
2018-10-11T00:58:22.453Z,51.33
2018-10-11T01:00:51.854Z,51.03
2018-10-11T01:03:21.036Z,50.40
2018-10-11T01:05:50.076Z,48.40
2018-10-11T01:08:18.957Z,48.53
2018-10-11T01:10:47.839Z,47.97
2018-10-11T01:13:17.957Z,52.10
2018-10-11T01:15:46.946Z,51.70
2018-10-11T01:18:16.192Z,46.87
2018-10-11T01:20:45.223Z,50.93
2018-10-11T01:23:14.265Z,51.30
2018-10-11T01:25:43.643Z,56.27
2018-10-11T01:28:12.703Z,51.73
2018-10-11T01:30:47.219Z,52.83
2018-10-11T01:33:18.714Z,50.47
2018-10-11T01:35:47.917Z,51.50
2018-10-11T01:38:16.993Z,50.67
2018-10-11T01:40:45.881Z,46.43
2018-10-11T01:43:15.368Z,45.57
2018-10-11T01:45:44.596Z,49.57
2018-10-11T01:48:13.547Z,49.57
2018-10-11T01:50:42.916Z,50.37
2018-10-11T01:53:12.365Z,47.80
2018-10-11T01:55:41.381Z,51.23
2018-10-11T01:58:10.367Z,48.93
2018-10-11T02:00:39.594Z,53.07
2018-10-11T02:03:09.991Z,51.20
2018-10-11T02:05:38.918Z,53.63
2018-10-11T02:08:07.927Z,52.10
2018-10-11T02:10:36.792Z,57.27
2018-10-11T02:13:05.627Z,53.47
2018-10-11T02:15:34.953Z,54.80
2018-10-11T02:18:04.208Z,50.03
2018-10-11T02:20:33.506Z,49.20
2018-10-11T02:23:02.805Z,57.43
2018-10-11T02:25:31.793Z,49.90
2018-10-11T02:28:01.071Z,49.47
2018-10-11T02:30:30.240Z,53.67
2018-10-11T02:32:59.289Z,53.33
2018-10-11T02:35:28.656Z,49.97
2018-10-11T02:37:57.715Z,50.97
2018-10-11T02:40:26.534Z,51.10
2018-10-11T02:42:55.615Z,51.70
2018-10-11T02:45:24.554Z,51.97
2018-10-11T02:47:53.840Z,55.77
2018-10-11T02:50:22.838Z,54.07
2018-10-11T02:52:51.892Z,52.93
2018-10-11T02:55:24.238Z,53.97
2018-10-11T02:58:04.119Z,54.17
2018-10-11T03:00:35.192Z,55.57
2018-10-11T03:03:08.949Z,54.10
2018-10-11T03:05:40.742Z,53.20
2018-10-11T03:08:13.151Z,51.00
2018-10-11T03:10:42.131Z,53.37
2018-10-11T03:13:13.071Z,49.93
2018-10-11T03:15:42.731Z,47.33
2018-10-11T03:18:12.805Z,47.67
2018-10-11T03:20:43.020Z,52.40
2018-10-11T03:23:12.548Z,48.57
2018-10-11T03:25:42.751Z,50.60
2018-10-11T03:28:12.953Z,47.57
2018-10-11T03:30:42.134Z,46.77
2018-10-11T03:33:12.245Z,49.07
2018-10-11T03:35:42.313Z,53.87
2018-10-11T03:38:11.576Z,48.07
2018-10-11T03:40:40.504Z,51.50
2018-10-11T03:43:09.838Z,47.87
2018-10-11T03:45:38.845Z,50.77
2018-10-11T03:48:08.204Z,46.53
2018-10-11T03:50:37.529Z,46.37
2018-10-11T03:53:06.856Z,50.47
2018-10-11T03:55:36.057Z,49.10
2018-10-11T03:58:04.978Z,51.87
2018-10-11T04:00:34.451Z,50.90
2018-10-11T04:03:03.727Z,48.90
2018-10-11T04:05:32.869Z,49.53
2018-10-11T04:08:01.878Z,47.73
2018-10-11T04:10:31.399Z,45.17
2018-10-11T04:13:00.863Z,49.10
2018-10-11T04:15:30.396Z,51.50
2018-10-11T04:17:59.914Z,44.10
2018-10-11T04:20:28.976Z,46.97
2018-10-11T04:22:58.151Z,45.10
2018-10-11T04:25:27.699Z,50.07
2018-10-11T04:27:57.308Z,52.27
2018-10-11T04:30:26.743Z,48.13
2018-10-11T04:32:56.744Z,47.00
2018-10-11T04:35:26.562Z,49.87
2018-10-11T04:37:55.710Z,48.07
2018-10-11T04:40:25.237Z,49.20
2018-10-11T04:42:54.763Z,47.87
2018-10-11T04:45:24.308Z,47.00
2018-10-11T04:47:54.122Z,43.83
2018-10-11T04:50:23.118Z,46.13
2018-10-11T04:52:52.072Z,48.93
2018-10-11T04:55:21.484Z,47.57
2018-10-11T04:57:50.954Z,49.57
2018-10-11T05:00:20.073Z,47.47
2018-10-11T05:02:49.437Z,49.53
2018-10-11T05:05:18.425Z,48.17
2018-10-11T05:07:47.734Z,44.67
2018-10-11T05:10:16.913Z,49.63
2018-10-11T05:12:46.424Z,45.20
2018-10-11T05:15:15.820Z,43.47
2018-10-11T05:17:45.939Z,45.10
2018-10-11T05:20:15.410Z,44.33
2018-10-11T05:22:44.643Z,45.20
2018-10-11T05:25:13.889Z,42.93
2018-10-11T05:27:43.033Z,40.17
2018-10-11T05:30:12.163Z,49.53
2018-10-11T05:32:41.384Z,45.77
2018-10-11T05:35:10.926Z,45.50
2018-10-11T05:37:40.318Z,47.80
2018-10-11T05:40:09.495Z,47.10
2018-10-11T05:42:39.008Z,49.40
2018-10-11T05:45:15.601Z,49.73
2018-10-11T05:47:45.087Z,48.23
2018-10-11T05:50:14.524Z,47.37
2018-10-11T05:52:44.503Z,45.23
2018-10-11T05:55:14.339Z,45.03
2018-10-11T05:57:43.989Z,46.50
2018-10-11T06:00:13.589Z,46.10
2018-10-11T06:03:16.502Z,44.43
2018-10-11T06:05:45.913Z,45.47
2018-10-11T06:08:14.969Z,44.53
2018-10-11T06:10:45.445Z,47.17
2018-10-11T06:13:15.292Z,48.33
2018-10-11T06:15:44.673Z,47.40
2018-10-11T06:18:14.208Z,44.90
2018-10-11T06:20:43.396Z,44.80
2018-10-11T06:23:12.533Z,43.50
2018-10-11T06:25:41.468Z,45.97
2018-10-11T06:28:10.947Z,46.90
2018-10-11T06:30:40.370Z,47.43
2018-10-11T06:33:09.275Z,45.70
2018-10-11T06:35:39.234Z,47.97
2018-10-11T06:38:08.629Z,49.60
2018-10-11T06:40:38.188Z,47.37
2018-10-11T06:43:07.634Z,46.20
2018-10-11T06:45:37.110Z,49.17
2018-10-11T06:48:08.064Z,52.17
2018-10-11T06:50:37.244Z,52.77
2018-10-11T06:53:06.527Z,53.63
2018-10-11T06:55:42.303Z,48.87
2018-10-11T06:58:11.523Z,52.03
2018-10-11T07:00:40.636Z,51.73
2018-10-11T07:03:10.046Z,56.30
2018-10-11T07:05:46.924Z,56.00
2018-10-11T07:08:16.120Z,54.87
2018-10-11T07:10:45.351Z,48.90
2018-10-11T07:13:14.407Z,50.47
2018-10-11T07:15:50.997Z,54.53
2018-10-11T07:18:20.068Z,55.00
2018-10-11T07:20:49.186Z,56.03
2018-10-11T07:23:18.356Z,56.60
2018-10-11T07:25:53.311Z,55.40
2018-10-11T07:28:22.818Z,55.17
2018-10-11T07:30:51.869Z,54.47
2018-10-11T07:33:21.028Z,56.50
2018-10-11T07:35:50.117Z,57.67
2018-10-11T07:38:19.633Z,57.27
2018-10-11T07:40:48.810Z,57.17
2018-10-11T07:43:17.861Z,54.77
2018-10-11T07:45:50.406Z,55.27
2018-10-11T07:48:20.637Z,56.90
2018-10-11T07:50:49.873Z,55.13
2018-10-11T07:53:18.871Z,56.73
2018-10-11T07:55:48.317Z,56.60
2018-10-11T07:58:17.335Z,56.23
2018-10-11T08:00:46.487Z,55.07
2018-10-11T08:03:15.507Z,58.93
2018-10-11T08:05:53.698Z,56.77
2018-10-11T08:08:23.312Z,50.77
2018-10-11T08:10:52.886Z,51.00
2018-10-11T08:13:22.148Z,54.80
2018-10-11T08:15:52.481Z,51.07
2018-10-11T08:18:21.440Z,55.53
2018-10-11T08:20:50.491Z,54.27
2018-10-11T08:23:19.453Z,52.37
2018-10-11T08:25:48.915Z,54.73
2018-10-11T08:28:22.476Z,53.80
2018-10-11T08:30:51.487Z,49.27
2018-10-11T08:33:20.633Z,56.17
2018-10-11T08:35:55.296Z,54.27
2018-10-11T08:38:24.437Z,52.07
2018-10-11T08:40:53.478Z,53.20
2018-10-11T08:43:22.956Z,59.50
2018-10-11T08:46:08.977Z,52.50
2018-10-11T08:48:38.076Z,54.93
2018-10-11T08:51:07.040Z,49.67
2018-10-11T08:53:36.518Z,47.80
2018-10-11T08:56:13.670Z,50.83
2018-10-11T08:58:42.877Z,50.77
2018-10-11T09:01:13.031Z,46.80
2018-10-11T09:03:42.489Z,49.10
2018-10-11T09:06:12.558Z,45.33
2018-10-11T09:08:41.760Z,46.40
2018-10-11T09:11:10.785Z,40.93
2018-10-11T09:13:40.616Z,44.63
2018-10-11T09:16:18.301Z,40.50
2018-10-11T09:18:47.431Z,37.03
2018-10-11T09:21:16.528Z,41.10
2018-10-11T09:23:45.628Z,36.90
2018-10-11T09:26:15.902Z,37.90
2018-10-11T09:28:44.948Z,34.70
2018-10-11T09:31:14.262Z,35.87
2018-10-11T09:33:43.869Z,35.60
2018-10-11T09:36:13.112Z,34.30
2018-10-11T09:38:42.558Z,32.23
2018-10-11T09:41:11.628Z,31.07
2018-10-11T09:43:40.766Z,32.07
2018-10-11T09:46:11.002Z,30.60
2018-10-11T09:48:40.103Z,32.20
2018-10-11T09:51:10.456Z,29.40
2018-10-11T09:53:39.956Z,24.10
2018-10-11T09:56:09.136Z,26.60
2018-10-11T09:58:38.216Z,28.23
2018-10-11T10:01:12.290Z,25.33
2018-10-11T10:03:41.318Z,24.67
2018-10-11T10:06:10.457Z,23.00
2018-10-11T10:08:39.518Z,31.87
2018-10-11T10:11:08.620Z,23.73
2018-10-11T10:13:37.780Z,22.57
2018-10-11T10:16:07.704Z,26.10
2018-10-11T10:18:36.809Z,21.97
2018-10-11T10:21:05.857Z,22.00
2018-10-11T10:23:34.849Z,20.53
2018-10-11T10:26:04.910Z,23.00
2018-10-11T10:28:33.879Z,21.90
2018-10-11T10:31:02.932Z,18.17
2018-10-11T10:33:32.320Z,19.63
2018-10-11T10:36:01.539Z,18.67
2018-10-11T10:38:30.699Z,18.53
2018-10-11T10:41:00.449Z,17.20
2018-10-11T10:43:29.890Z,16.27
2018-10-11T10:45:59.381Z,17.53
2018-10-11T10:48:28.401Z,16.13
2018-10-11T10:50:57.434Z,17.33
2018-10-11T10:53:26.537Z,15.57
2018-10-11T10:55:56.272Z,15.57
2018-10-11T10:58:25.336Z,14.90
2018-10-11T11:00:54.289Z,13.60
2018-10-11T11:03:23.272Z,16.63
2018-10-11T11:05:52.254Z,14.13
2018-10-11T11:08:22.410Z,14.53
2018-10-11T11:10:51.394Z,12.60
2018-10-11T11:13:22.618Z,14.83
2018-10-11T11:15:52.297Z,15.40
2018-10-11T11:18:24.746Z,13.70
2018-10-11T11:20:53.713Z,15.10
2018-10-11T11:23:22.866Z,14.53
2018-10-11T11:25:51.785Z,13.10
2018-10-11T11:28:21.971Z,11.27
2018-10-11T11:30:51.291Z,14.13
2018-10-11T11:33:20.349Z,12.90
2018-10-11T11:35:49.464Z,14.40
2018-10-11T11:38:20.533Z,11.77
2018-10-11T11:40:49.653Z,12.87
2018-10-11T11:43:18.737Z,10.10
2018-10-11T11:45:47.920Z,16.07
2018-10-11T11:48:18.142Z,15.47
2018-10-11T11:50:47.215Z,11.20
2018-10-11T11:53:16.181Z,12.10
2018-10-11T11:55:44.976Z,13.90
2018-10-11T11:58:14.862Z,12.73
2018-10-11T12:00:43.791Z,10.30
2018-10-11T12:03:12.580Z,10.20
2018-10-11T12:05:41.569Z,16.77
2018-10-11T12:08:11.312Z,10.20
2018-10-11T12:10:40.070Z,10.77
2018-10-11T12:13:12.860Z,9.60
2018-10-11T12:15:43.714Z,10.30
2018-10-11T12:18:28.133Z,9.33
2018-10-11T12:20:57.039Z,11.40
2018-10-11T12:23:25.973Z,8.50
2018-10-11T12:25:54.815Z,9.67
2018-10-11T12:28:33.463Z,9.07
2018-10-11T12:31:02.194Z,8.53
2018-10-11T12:33:31.111Z,6.83
2018-10-11T12:35:59.994Z,7.50
2018-10-11T12:38:30.029Z,7.40
2018-10-11T12:40:58.816Z,7.80
2018-10-11T12:43:27.652Z,7.83
2018-10-11T12:45:56.434Z,7.93
2018-10-11T12:48:33.565Z,7.73
2018-10-11T12:51:02.671Z,7.73
2018-10-11T12:53:31.483Z,8.30
2018-10-11T12:56:00.360Z,7.60
2018-10-11T12:58:30.207Z,6.47
2018-10-11T13:00:59.090Z,8.77
2018-10-11T13:03:28.656Z,9.50
2018-10-11T13:05:59.348Z,6.67
2018-10-11T13:08:32.968Z,10.40
2018-10-11T13:11:04.883Z,9.23
2018-10-11T13:13:37.228Z,9.17
2018-10-11T13:16:07.012Z,6.83
2018-10-11T13:18:36.852Z,7.90
2018-10-11T13:21:05.706Z,10.90
2018-10-11T13:23:35.364Z,6.63
2018-10-11T13:26:04.422Z,6.77
2018-10-11T13:28:34.229Z,7.90
2018-10-11T13:31:05.580Z,6.90
2018-10-11T13:33:37.957Z,6.90
2018-10-11T13:36:10.791Z,6.80
2018-10-11T13:38:40.704Z,7.50
2018-10-11T13:41:11.135Z,7.20
2018-10-11T13:43:39.858Z,6.40
2018-10-11T13:46:08.815Z,7.50
2018-10-11T13:48:37.539Z,8.43
2018-10-11T13:51:07.093Z,6.57
2018-10-11T13:53:36.139Z,6.80
2018-10-11T13:56:05.433Z,6.97
2018-10-11T13:58:35.986Z,7.53
2018-10-11T14:01:04.924Z,7.50
2018-10-11T14:03:33.789Z,7.73
2018-10-11T14:06:03.012Z,5.80
2018-10-11T14:08:32.984Z,6.47
2018-10-11T14:11:02.781Z,8.10
2018-10-11T14:13:31.602Z,8.13
2018-10-11T14:16:00.415Z,7.03
2018-10-11T14:18:31.392Z,7.20
2018-10-11T14:21:00.515Z,6.78
2018-10-11T14:23:29.248Z,8.58
2018-10-11T14:25:58.003Z,6.85
2018-10-11T14:28:41.492Z,7.17
2018-10-11T14:31:10.245Z,6.50
2018-10-11T14:33:39.337Z,7.05
2018-10-11T14:36:08.251Z,5.53
2018-10-11T14:38:37.227Z,6.47
2018-10-11T14:41:06.039Z,7.25
2018-10-11T14:43:34.921Z,6.35
2018-10-11T14:46:03.600Z,6.28
2018-10-11T14:48:45.776Z,9.18
2018-10-11T14:51:14.626Z,5.70
2018-10-11T14:53:43.470Z,6.60
2018-10-11T14:56:12.355Z,5.90
2018-10-11T14:58:44.694Z,6.40
2018-10-11T15:01:13.759Z,5.40
2018-10-11T15:03:42.976Z,7.60
2018-10-11T15:06:11.727Z,6.50
2018-10-11T15:08:53.749Z,5.75
2018-10-11T15:11:22.528Z,6.53
2018-10-11T15:13:51.211Z,6.70
2018-10-11T15:16:19.998Z,7.20
2018-10-11T15:18:54.372Z,12.10
2018-10-11T15:21:23.073Z,5.50
2018-10-11T15:23:51.869Z,5.30
2018-10-11T15:26:21.153Z,6.90
2018-10-11T15:28:50.875Z,5.70
2018-10-11T15:31:20.007Z,5.83
2018-10-11T15:33:48.657Z,6.73
2018-10-11T15:36:17.379Z,5.57
2018-10-11T15:38:46.116Z,5.50
2018-10-11T15:41:14.964Z,5.33
2018-10-11T15:43:43.718Z,6.57
2018-10-11T15:46:12.356Z,6.10
2018-10-11T15:48:41.139Z,6.93
2018-10-11T15:51:09.885Z,6.23
2018-10-11T15:53:38.673Z,6.80
2018-10-11T15:56:09.903Z,6.90
2018-10-11T15:58:38.770Z,6.30
2018-10-11T16:01:07.552Z,6.40
2018-10-11T16:03:36.444Z,6.93
2018-10-11T16:06:05.861Z,6.07
2018-10-11T16:08:34.738Z,5.03
2018-10-11T16:11:10.827Z,6.27
2018-10-11T16:13:39.725Z,5.57
2018-10-11T16:16:08.815Z,5.80
2018-10-11T16:18:37.705Z,6.43
2018-10-11T16:21:13.950Z,5.37
2018-10-11T16:23:42.681Z,5.57
2018-10-11T16:26:11.542Z,6.53
2018-10-11T16:28:40.442Z,6.60
2018-10-11T16:31:16.780Z,7.17
2018-10-11T16:33:45.714Z,6.60
2018-10-11T16:36:15.410Z,5.87
2018-10-11T16:38:44.206Z,7.60
2018-10-11T16:41:23.936Z,6.33
2018-10-11T16:43:53.069Z,6.47
2018-10-11T16:46:21.836Z,6.57
2018-10-11T16:48:50.577Z,7.63
2018-10-11T16:51:19.467Z,8.10
2018-10-11T16:53:48.260Z,7.60
2018-10-11T16:56:17.154Z,6.60
2018-10-11T16:58:46.747Z,8.70
2018-10-11T17:01:15.552Z,7.30
2018-10-11T17:03:44.358Z,7.17
2018-10-11T17:06:13.278Z,6.50
2018-10-11T17:08:42.131Z,8.17
2018-10-11T17:11:10.867Z,7.67
2018-10-11T17:13:39.730Z,7.60
2018-10-11T17:16:08.564Z,9.13
2018-10-11T17:18:37.463Z,7.97
2018-10-11T17:21:06.362Z,8.80
2018-10-11T17:23:35.100Z,8.27
2018-10-11T17:26:03.924Z,8.10
2018-10-11T17:28:32.800Z,7.90
2018-10-11T17:31:01.527Z,7.50
2018-10-11T17:33:30.417Z,8.70
2018-10-11T17:35:59.163Z,9.23
2018-10-11T17:38:28.062Z,8.30
2018-10-11T17:40:56.835Z,7.30
2018-10-11T17:43:25.636Z,7.00
2018-10-11T17:45:54.463Z,9.00
2018-10-11T17:48:23.308Z,8.03
2018-10-11T17:50:55.239Z,7.73
2018-10-11T17:53:24.062Z,8.30
2018-10-11T17:55:53.229Z,9.10
2018-10-11T17:58:22.072Z,10.20
2018-10-11T18:00:50.802Z,9.10
2018-10-11T18:03:19.575Z,8.10
2018-10-11T18:05:49.031Z,8.47
2018-10-11T18:08:17.802Z,7.83
2018-10-11T18:10:48.799Z,9.27
2018-10-11T18:13:17.846Z,8.30
2018-10-11T18:15:46.563Z,6.97
2018-10-11T18:18:15.591Z,7.80
2018-10-11T18:20:45.071Z,7.20
2018-10-11T18:23:13.892Z,8.90
2018-10-11T18:25:42.947Z,8.20
2018-10-11T18:28:12.105Z,7.23
2018-10-11T18:30:41.350Z,7.90
2018-10-11T18:33:10.374Z,8.17
2018-10-11T18:35:39.777Z,7.80
2018-10-11T18:38:08.850Z,8.83
2018-10-11T18:40:37.812Z,7.57
2018-10-11T18:43:06.903Z,10.17
2018-10-11T18:45:35.894Z,9.77
2018-10-11T18:48:04.822Z,9.87
2018-10-11T18:50:33.836Z,8.30
2018-10-11T18:53:02.624Z,11.10
2018-10-11T18:55:31.757Z,11.63
2018-10-11T18:58:00.675Z,8.80
2018-10-11T19:00:30.020Z,8.40
2018-10-11T19:02:59.131Z,11.17
2018-10-11T19:05:28.564Z,8.07
2018-10-11T19:07:57.869Z,10.07
2018-10-11T19:10:27.017Z,9.27
2018-10-11T19:12:56.164Z,8.70
2018-10-11T19:15:25.305Z,10.90
2018-10-11T19:17:54.354Z,9.93
2018-10-11T19:20:23.671Z,10.13
2018-10-11T19:22:52.958Z,11.53
2018-10-11T19:25:22.080Z,11.03
2018-10-11T19:27:51.857Z,9.80
2018-10-11T19:30:20.824Z,10.77
2018-10-11T19:32:49.750Z,10.03
2018-10-11T19:35:18.617Z,10.77
2018-10-11T19:37:47.439Z,13.07
2018-10-11T19:40:16.364Z,12.50
2018-10-11T19:42:45.118Z,12.60
2018-10-11T19:45:14.355Z,11.87
2018-10-11T19:47:43.274Z,12.27
2018-10-11T19:50:12.419Z,13.77
2018-10-11T19:52:41.552Z,11.60
2018-10-11T19:55:10.472Z,10.97
2018-10-11T19:57:39.530Z,11.70
2018-10-11T20:00:08.576Z,10.33
2018-10-11T20:02:37.445Z,11.87
2018-10-11T20:05:06.345Z,12.00
2018-10-11T20:07:36.228Z,10.87
2018-10-11T20:10:05.123Z,11.00
2018-10-11T20:12:34.029Z,10.70
2018-10-11T20:15:03.443Z,11.13
2018-10-11T20:17:32.950Z,10.73
2018-10-11T20:20:01.920Z,11.10
2018-10-11T20:22:30.891Z,11.40
2018-10-11T20:24:59.710Z,11.00
2018-10-11T20:27:28.534Z,11.53
2018-10-11T20:29:57.352Z,11.90
2018-10-11T20:32:27.145Z,11.57
2018-10-11T20:34:55.952Z,12.13
2018-10-11T20:37:24.799Z,12.90
2018-10-11T20:39:53.730Z,13.43
2018-10-11T20:42:22.554Z,12.57
2018-10-11T20:44:51.307Z,12.60
2018-10-11T20:47:20.159Z,14.40
2018-10-11T20:49:48.916Z,11.77
2018-10-11T20:52:17.825Z,11.87
2018-10-11T20:54:46.636Z,12.93
2018-10-11T20:57:15.467Z,14.77
2018-10-11T20:59:44.208Z,13.63
2018-10-11T21:02:12.998Z,11.47
2018-10-11T21:04:41.784Z,13.10
2018-10-11T21:07:10.739Z,13.27
2018-10-11T21:09:39.480Z,14.83
2018-10-11T21:12:08.378Z,13.07
2018-10-11T21:14:37.181Z,12.87
2018-10-11T21:17:06.044Z,13.13
2018-10-11T21:19:35.950Z,14.50
2018-10-11T21:22:04.772Z,13.20
2018-10-11T21:24:33.680Z,15.23
2018-10-11T21:27:02.550Z,15.87
2018-10-11T21:29:31.373Z,15.03
2018-10-11T21:32:00.243Z,15.70
2018-10-11T21:34:29.056Z,16.20
2018-10-11T21:36:57.835Z,15.50
2018-10-11T21:39:26.651Z,16.87
2018-10-11T21:41:56.985Z,16.10
2018-10-11T21:44:25.819Z,16.00
2018-10-11T21:46:54.597Z,16.23
2018-10-11T21:49:23.331Z,15.90
2018-10-11T21:51:53.182Z,16.30
2018-10-11T21:54:22.169Z,15.37
2018-10-11T21:56:51.020Z,16.20
2018-10-11T21:59:19.818Z,15.83
2018-10-11T22:01:48.533Z,18.63
2018-10-11T22:04:17.314Z,18.60
2018-10-11T22:06:46.128Z,17.10
2018-10-11T22:09:15.345Z,19.83
2018-10-11T22:11:44.169Z,17.80
2018-10-11T22:14:12.960Z,18.67
2018-10-11T22:16:42.223Z,19.73
2018-10-11T22:19:11.100Z,18.40
2018-10-11T22:21:39.855Z,19.27
2018-10-11T22:24:09.180Z,19.77
2018-10-11T22:26:38.008Z,19.50
2018-10-11T22:29:06.882Z,19.27
2018-10-11T22:31:35.717Z,18.43
2018-10-11T22:34:04.407Z,17.67
2018-10-11T22:36:33.091Z,17.90
2018-10-11T22:39:01.870Z,19.07
2018-10-11T22:41:30.851Z,17.93
2018-10-11T22:43:59.690Z,18.37
2018-10-11T22:46:28.540Z,18.97
2018-10-11T22:48:57.303Z,21.23
2018-10-11T22:51:25.978Z,18.83
2018-10-11T22:53:54.755Z,20.10
2018-10-11T22:56:23.519Z,19.13
2018-10-11T22:58:53.261Z,20.53
2018-10-11T23:01:21.938Z,19.60
2018-10-11T23:03:51.093Z,21.73
2018-10-11T23:06:19.892Z,20.17
2018-10-11T23:08:48.544Z,21.53
2018-10-11T23:11:17.277Z,22.17
2018-10-11T23:13:46.356Z,24.17
2018-10-11T23:16:15.198Z,22.00
2018-10-11T23:18:44.028Z,21.40
2018-10-11T23:21:13.270Z,23.40
2018-10-11T23:23:43.391Z,22.10
2018-10-11T23:26:12.163Z,23.17
2018-10-11T23:28:41.417Z,22.07
2018-10-11T23:31:10.592Z,23.20
2018-10-11T23:33:39.484Z,21.17
2018-10-11T23:36:08.236Z,21.57
2018-10-11T23:38:37.195Z,22.97
2018-10-11T23:41:06.352Z,21.67
2018-10-11T23:43:35.195Z,21.13
2018-10-11T23:46:04.012Z,20.30
2018-10-11T23:48:32.864Z,23.53
2018-10-11T23:51:01.646Z,23.07
2018-10-11T23:53:30.312Z,22.50
2018-10-11T23:55:59.104Z,21.00
2018-10-11T23:58:27.772Z,19.43
